Time;durP1;ratioP1;P1;durP2;ratioP2;P2;SDS_P1;SDS_P2;PMS_P1;PMS_P2;Temp;Humidity;BMP_temperature;BMP_pressure;BME280_temperature;BME280_humidity;BME280_pressure;Samples;Min_cycle;Max_cycle;Signal;HPM_P1;HPM_P2
2022/12/18 00:01:22;;;;;;;10.55;4.70;;;;;;;;;;4960974;28;20026;-63
2022/12/18 00:03:48;;;;;;;11.35;4.47;;;;;;;;;;4955056;28;20113;-64
2022/12/18 00:06:15;;;;;;;11.77;5.53;;;;;;;;;;4961197;28;20419;-63
2022/12/18 00:08:41;;;;;;;11.10;4.90;;;;;;;;;;4956332;28;20477;-63
2022/12/18 00:11:08;;;;;;;12.23;5.30;;;;;;;;;;4955865;28;20510;-65
2022/12/18 00:13:35;;;;;;;12.52;5.78;;;;;;;;;;4956972;28;20034;-63
2022/12/18 00:16:05;;;;;;;13.13;5.60;;;;;;;;;;4958815;28;20357;-63
2022/12/18 00:18:32;;;;;;;11.40;5.57;;;;;;;;;;4957085;28;20057;-63
2022/12/18 00:21:02;;;;;;;11.88;5.55;;;;;;;;;;4962181;28;20362;-63
2022/12/18 00:23:29;;;;;;;12.95;5.03;;;;;;;;;;4954387;28;20598;-63
2022/12/18 00:25:55;;;;;;;11.90;4.78;;;;;;;;;;4960198;28;20838;-63
2022/12/18 00:28:21;;;;;;;11.13;5.10;;;;;;;;;;4955583;28;20034;-63
2022/12/18 00:30:51;;;;;;;10.65;4.50;;;;;;;;;;4962252;28;20443;-63
2022/12/18 00:33:17;;;;;;;11.88;4.82;;;;;;;;;;4957462;28;20821;-63
2022/12/18 00:35:43;;;;;;;11.82;4.70;;;;;;;;;;4956439;28;20481;-63
2022/12/18 00:38:09;;;;;;;11.82;4.30;;;;;;;;;;4961072;28;20563;-63
2022/12/18 00:40:35;;;;;;;10.50;4.13;;;;;;;;;;4956726;28;20026;-63
2022/12/18 00:43:02;;;;;;;11.13;4.90;;;;;;;;;;4975380;28;20120;-64
2022/12/18 00:45:29;;;;;;;10.43;4.50;;;;;;;;;;4953284;28;20030;-63
2022/12/18 00:47:55;;;;;;;9.55;4.22;;;;;;;;;;4960199;28;20443;-63
2022/12/18 00:50:21;;;;;;;;;;;;;;;;;;4956075;28;20117;-64
2022/12/18 00:52:48;;;;;;;10.05;4.38;;;;;;;;;;4957014;28;19920;-64
2022/12/18 00:55:14;;;;;;;11.75;4.63;;;;;;;;;;4958353;28;20038;-64
2022/12/18 00:57:40;;;;;;;12.25;4.88;;;;;;;;;;4954812;28;20099;-63
2022/12/18 01:00:08;;;;;;;12.23;6.10;;;;;;;;;;4957188;28;20037;-65
2022/12/18 01:02:34;;;;;;;12.85;5.40;;;;;;;;;;4957168;28;20440;-65
2022/12/18 01:05:00;;;;;;;11.73;5.60;;;;;;;;;;4960748;28;20058;-64
2022/12/18 01:07:27;;;;;;;11.40;4.88;;;;;;;;;;4952147;28;20041;-64
2022/12/18 01:09:53;;;;;;;9.20;3.92;;;;;;;;;;4954721;28;20113;-62
2022/12/18 01:12:19;;;;;;;10.80;4.00;;;;;;;;;;4959014;28;20041;-63
2022/12/18 01:14:45;;;;;;;8.93;3.67;;;;;;;;;;4956601;28;20045;-65
2022/12/18 01:17:11;;;;;;;9.23;3.60;;;;;;;;;;4954735;28;20037;-62
2022/12/18 01:19:37;;;;;;;10.90;3.53;;;;;;;;;;4949016;28;20034;-63
2022/12/18 01:22:04;;;;;;;9.75;3.78;;;;;;;;;;4959065;28;20539;-64
2022/12/18 01:24:30;;;;;;;10.18;3.63;;;;;;;;;;4969047;28;20484;-64
2022/12/18 01:26:57;;;;;;;10.35;4.85;;;;;;;;;;4956050;28;20085;-64
2022/12/18 01:29:23;;;;;;;12.52;5.75;;;;;;;;;;4953153;28;20797;-64
2022/12/18 01:31:49;;;;;;;12.30;5.20;;;;;;;;;;4955676;28;20473;-64
2022/12/18 01:34:15;;;;;;;12.88;5.57;;;;;;;;;;4955128;28;20662;-64
2022/12/18 01:36:41;;;;;;;11.82;5.60;;;;;;;;;;4955438;28;20195;-63
2022/12/18 01:39:12;;;;;;;10.95;5.20;;;;;;;;;;4957068;28;20838;-65
2022/12/18 01:44:42;;;;;;;12.13;5.88;;;;;;;;;;4952770;28;20061;-63
2022/12/18 01:47:08;;;;;;;11.48;5.90;;;;;;;;;;4952550;28;20289;-63
2022/12/18 01:49:34;;;;;;;11.02;4.35;;;;;;;;;;4951110;28;20122;-63
2022/12/18 01:52:01;;;;;;;10.32;4.05;;;;;;;;;;4955187;28;20045;-63
2022/12/18 01:54:28;;;;;;;11.52;5.45;;;;;;;;;;4965946;28;20055;-63
2022/12/18 01:56:54;;;;;;;10.48;4.22;;;;;;;;;;4955676;28;20379;-63
2022/12/18 01:59:20;;;;;;;10.15;3.90;;;;;;;;;;4951130;28;20038;-63
2022/12/18 02:01:46;;;;;;;;;;;;;;;;;;4958581;28;20026;-64
2022/12/18 02:04:30;;;;;;;10.95;3.47;;;;;;;;;;4955880;28;20330;-64
2022/12/18 02:07:26;;;;;;;11.70;3.63;;;;;;;;;;4956197;28;20042;-63
2022/12/18 02:09:59;;;;;;;11.43;3.75;;;;;;;;;;4894862;29;20509;-64
2022/12/18 02:12:27;;;;;;;9.05;3.67;;;;;;;;;;4891233;29;20721;-63
2022/12/18 02:14:53;;;;;;;9.18;3.80;;;;;;;;;;4896148;29;20035;-64
2022/12/18 02:17:21;;;;;;;9.93;3.88;;;;;;;;;;4894968;29;20055;-63
2022/12/18 02:20:06;;;;;;;11.45;4.30;;;;;;;;;;4896683;29;20351;-64
2022/12/18 02:22:38;;;;;;;9.95;3.85;;;;;;;;;;4891685;29;20115;-67
2022/12/18 02:25:07;;;;;;;14.43;5.30;;;;;;;;;;4878978;29;20031;-64
2022/12/18 02:27:34;;;;;;;13.68;4.60;;;;;;;;;;4891926;29;20084;-63
2022/12/18 02:30:02;;;;;;;11.13;5.03;;;;;;;;;;4896934;29;20031;-63
2022/12/18 02:32:31;;;;;;;12.95;5.80;;;;;;;;;;4890383;29;20039;-65
2022/12/18 02:34:58;;;;;;;11.13;5.20;;;;;;;;;;4894975;29;20035;-63
2022/12/18 02:37:25;;;;;;;13.20;4.95;;;;;;;;;;4893188;29;20851;-64
2022/12/18 02:39:53;;;;;;;11.95;4.45;;;;;;;;;;4895361;29;20372;-63
2022/12/18 02:42:19;;;;;;;11.80;3.90;;;;;;;;;;4878716;29;20047;-63
2022/12/18 02:44:47;;;;;;;11.07;3.70;;;;;;;;;;4894201;29;20447;-63
2022/12/18 02:47:14;;;;;;;8.85;3.53;;;;;;;;;;4947594;28;20485;-63
2022/12/18 02:49:48;;;;;;;10.23;3.63;;;;;;;;;;4951882;28;20045;-62
2022/12/18 02:52:33;;;;;;;10.07;3.30;;;;;;;;;;4958478;28;20038;-63
2022/12/18 02:55:08;;;;;;;9.60;3.10;;;;;;;;;;4968704;28;20713;-63
2022/12/18 02:57:37;;;;;;;8.70;3.50;;;;;;;;;;4953900;28;20027;-63
2022/12/18 03:00:23;;;;;;;10.05;3.70;;;;;;;;;;4956044;28;20037;-63
2022/12/18 03:02:54;;;;;;;9.88;3.67;;;;;;;;;;4952320;28;20144;-62
2022/12/18 03:05:23;;;;;;;10.57;3.40;;;;;;;;;;4954158;28;20545;-64
2022/12/18 03:08:19;;;;;;;8.68;3.20;;;;;;;;;;4954338;28;20096;-65
2022/12/18 03:10:54;;;;;;;7.88;2.95;;;;;;;;;;4946005;28;20046;-65
2022/12/18 03:13:23;;;;;;;11.38;3.42;;;;;;;;;;4948979;28;20542;-64
2022/12/18 03:15:51;;;;;;;10.45;2.92;;;;;;;;;;4955736;28;20069;-65
2022/12/18 03:18:24;;;;;;;8.68;3.08;;;;;;;;;;4956117;28;20479;-64
2022/12/18 03:20:51;;;;;;;7.50;2.67;;;;;;;;;;4955197;28;20038;-64
2022/12/18 03:23:19;;;;;;;9.27;2.95;;;;;;;;;;4957449;28;20559;-65
2022/12/18 03:25:47;;;;;;;10.27;3.58;;;;;;;;;;4952733;28;20030;-65
2022/12/18 03:28:15;;;;;;;10.57;3.22;;;;;;;;;;4970441;28;20034;-65
2022/12/18 03:30:42;;;;;;;11.05;3.35;;;;;;;;;;4951446;28;20034;-65
2022/12/18 03:33:11;;;;;;;9.00;3.10;;;;;;;;;;4951440;28;20030;-64
2022/12/18 03:35:39;;;;;;;9.25;3.20;;;;;;;;;;4951281;28;20326;-63
2022/12/18 03:38:06;;;;;;;9.98;3.25;;;;;;;;;;4952361;28;22571;-63
2022/12/18 03:40:39;;;;;;;9.73;3.15;;;;;;;;;;4966399;28;20038;-63
2022/12/18 03:43:25;;;;;;;10.88;4.22;;;;;;;;;;4971798;28;20026;-63
2022/12/18 03:45:54;;;;;;;9.55;4.43;;;;;;;;;;4948269;28;20109;-63
2022/12/18 03:48:30;;;;;;;9.80;4.15;;;;;;;;;;4948267;28;20034;-63
2022/12/18 03:51:05;;;;;;;10.55;4.07;;;;;;;;;;4954521;28;20144;-62
2022/12/18 03:53:57;;;;;;;8.85;3.38;;;;;;;;;;4948317;28;20404;-62
2022/12/18 03:56:26;;;;;;;9.05;3.17;;;;;;;;;;4950039;28;20141;-63
2022/12/18 03:58:53;;;;;;;9.35;3.17;;;;;;;;;;4950830;28;20054;-62
2022/12/18 04:01:21;;;;;;;11.18;3.30;;;;;;;;;;4957202;28;20027;-63
2022/12/18 04:03:49;;;;;;;11.48;3.47;;;;;;;;;;4953901;28;20691;-63
2022/12/18 04:06:16;;;;;;;10.90;3.33;;;;;;;;;;4954779;28;20046;-63
2022/12/18 04:08:42;;;;;;;11.80;3.35;;;;;;;;;;4952804;28;20473;-63
2022/12/18 04:11:08;;;;;;;;;;;;;;;;;;4953880;28;20679;-63
2022/12/18 04:13:38;;;;;;;8.30;3.08;;;;;;;;;;4952478;28;19920;-63
2022/12/18 04:16:04;;;;;;;7.95;2.90;;;;;;;;;;4966729;28;20839;-63
2022/12/18 04:18:30;;;;;;;7.30;2.20;;;;;;;;;;4961815;28;20449;-62
2022/12/18 04:20:57;;;;;;;7.90;2.40;;;;;;;;;;4953266;28;20953;-63
2022/12/18 04:23:23;;;;;;;5.72;2.00;;;;;;;;;;4965126;28;20026;-63
2022/12/18 04:25:49;;;;;;;7.10;2.10;;;;;;;;;;4950068;28;20124;-63
2022/12/18 04:28:15;;;;;;;6.90;2.30;;;;;;;;;;4957738;28;20125;-63
2022/12/18 04:30:41;;;;;;;7.60;2.00;;;;;;;;;;4949453;28;20042;-63
2022/12/18 04:33:11;;;;;;;9.48;2.35;;;;;;;;;;4956302;28;20445;-63
2022/12/18 04:35:37;;;;;;;5.82;1.98;;;;;;;;;;4947095;28;20080;-63
2022/12/18 04:38:03;;;;;;;9.65;2.30;;;;;;;;;;4952283;28;20149;-63
2022/12/18 04:40:29;;;;;;;7.38;2.00;;;;;;;;;;4953705;28;20109;-63
2022/12/18 04:42:55;;;;;;;7.53;2.15;;;;;;;;;;4953652;28;20069;-63
2022/12/18 04:45:21;;;;;;;7.47;2.08;;;;;;;;;;4954367;28;20061;-63
2022/12/18 04:47:47;;;;;;;6.57;2.15;;;;;;;;;;4958048;28;20578;-63
2022/12/18 04:50:14;;;;;;;6.82;1.80;;;;;;;;;;4957858;28;20552;-63
2022/12/18 04:52:40;;;;;;;7.13;1.92;;;;;;;;;;4951402;28;20937;-63
2022/12/18 04:55:09;;;;;;;7.82;1.83;;;;;;;;;;4957006;28;20117;-63
2022/12/18 04:57:35;;;;;;;6.45;1.88;;;;;;;;;;4968481;28;20158;-63
2022/12/18 05:00:01;;;;;;;6.50;2.00;;;;;;;;;;4959354;28;20030;-63
2022/12/18 05:02:27;;;;;;;6.20;1.83;;;;;;;;;;4955174;28;20476;-62
2022/12/18 05:04:54;;;;;;;6.30;1.83;;;;;;;;;;4959751;28;20471;-63
2022/12/18 05:07:20;;;;;;;9.85;2.10;;;;;;;;;;4957656;28;20145;-63
2022/12/18 05:09:46;;;;;;;8.15;2.10;;;;;;;;;;4956069;28;20030;-63
2022/12/18 05:12:12;;;;;;;6.00;2.00;;;;;;;;;;4955914;28;20085;-63
2022/12/18 05:14:38;;;;;;;6.50;2.10;;;;;;;;;;4954988;28;20034;-62
2022/12/18 05:17:04;;;;;;;6.28;2.00;;;;;;;;;;4970074;28;20030;-62
2022/12/18 05:19:31;;;;;;;4.82;1.67;;;;;;;;;;4954919;28;20445;-63
2022/12/18 05:21:57;;;;;;;7.93;2.40;;;;;;;;;;4954093;28;20029;-62
2022/12/18 05:24:24;;;;;;;6.95;2.30;;;;;;;;;;4970344;28;20562;-63
2022/12/18 05:26:50;;;;;;;7.57;2.13;;;;;;;;;;4956828;28;20255;-62
2022/12/18 05:29:16;;;;;;;6.82;1.95;;;;;;;;;;4957814;28;21432;-63
2022/12/18 05:31:42;;;;;;;5.85;1.95;;;;;;;;;;4953503;28;20251;-63
2022/12/18 05:34:08;;;;;;;8.20;1.77;;;;;;;;;;4956102;28;20038;-64
2022/12/18 05:36:34;;;;;;;7.40;1.88;;;;;;;;;;4953892;28;20038;-64
2022/12/18 05:39:01;;;;;;;8.00;1.75;;;;;;;;;;4956770;28;20034;-64
2022/12/18 05:41:27;;;;;;;4.88;1.50;;;;;;;;;;4953166;28;20026;-63
2022/12/18 05:43:53;;;;;;;4.80;1.60;;;;;;;;;;4956661;28;20133;-63
2022/12/18 05:46:19;;;;;;;8.13;1.80;;;;;;;;;;4956838;28;20125;-64
2022/12/18 05:48:46;;;;;;;6.90;1.73;;;;;;;;;;4955991;28;20464;-63
2022/12/18 05:51:14;;;;;;;4.82;1.45;;;;;;;;;;4955516;28;20400;-63
2022/12/18 05:53:40;;;;;;;5.80;1.45;;;;;;;;;;4953524;28;20745;-63
2022/12/18 05:56:08;;;;;;;6.57;1.80;;;;;;;;;;4972598;28;22784;-64
2022/12/18 05:58:35;;;;;;;4.70;1.40;;;;;;;;;;4952544;28;20030;-64
2022/12/18 06:01:01;;;;;;;;;;;;;;;;;;4959490;28;20029;-63
2022/12/18 06:03:27;;;;;;;5.78;1.63;;;;;;;;;;4967777;28;19918;-63
2022/12/18 06:05:53;;;;;;;6.03;1.92;;;;;;;;;;4957917;28;20305;-63
2022/12/18 06:08:19;;;;;;;6.50;1.70;;;;;;;;;;4956358;28;20080;-62
2022/12/18 06:10:51;;;;;;;6.13;2.00;;;;;;;;;;4953410;28;20105;-64
2022/12/18 06:13:18;;;;;;;7.35;2.33;;;;;;;;;;4955299;28;20733;-63
2022/12/18 06:15:44;;;;;;;7.47;1.88;;;;;;;;;;4951937;28;20559;-63
2022/12/18 06:18:10;;;;;;;8.90;2.58;;;;;;;;;;4955881;28;20165;-64
2022/12/18 06:20:39;;;;;;;7.03;2.10;;;;;;;;;;4951964;28;21367;-63
2022/12/18 06:23:05;;;;;;;7.90;2.47;;;;;;;;;;4956871;28;20024;-63
2022/12/18 06:25:31;;;;;;;7.72;3.10;;;;;;;;;;4951843;28;20228;-64
2022/12/18 06:27:57;;;;;;;;;;;;;;;;;;4954306;28;20042;-64
2022/12/18 06:30:24;;;;;;;8.57;2.22;;;;;;;;;;4951729;28;19914;-63
2022/12/18 06:32:50;;;;;;;9.55;2.20;;;;;;;;;;4956563;28;20614;-63
2022/12/18 06:35:16;;;;;;;7.18;2.47;;;;;;;;;;4955733;28;20036;-63
2022/12/18 06:37:42;;;;;;;10.55;2.97;;;;;;;;;;4954642;28;20688;-62
2022/12/18 06:40:09;;;;;;;10.68;4.00;;;;;;;;;;4952147;28;20548;-63
2022/12/18 06:42:35;;;;;;;8.57;2.72;;;;;;;;;;4954528;28;20417;-63
2022/12/18 06:45:01;;;;;;;6.38;2.10;;;;;;;;;;4952003;28;20033;-63
2022/12/18 06:47:27;;;;;;;8.23;2.40;;;;;;;;;;4952846;28;20042;-63
2022/12/18 06:49:53;;;;;;;8.52;2.45;;;;;;;;;;4955211;28;20439;-63
2022/12/18 06:52:19;;;;;;;7.07;2.08;;;;;;;;;;4957500;28;20330;-63
2022/12/18 06:54:45;;;;;;;6.30;2.00;;;;;;;;;;4952430;28;20050;-63
2022/12/18 06:57:11;;;;;;;6.30;1.95;;;;;;;;;;4955275;28;20594;-63
2022/12/18 06:59:38;;;;;;;6.70;1.98;;;;;;;;;;4951713;28;20552;-63
2022/12/18 07:02:04;;;;;;;6.72;2.20;;;;;;;;;;4954222;28;20547;-63
2022/12/18 07:04:30;;;;;;;6.10;1.85;;;;;;;;;;4952158;28;20057;-63
2022/12/18 07:06:57;;;;;;;;;;;;;;;;;;4969959;28;20151;-64
2022/12/18 07:09:23;;;;;;;7.03;2.15;;;;;;;;;;4949767;28;20049;-63
2022/12/18 07:11:49;;;;;;;;;;;;;;;;;;4957613;28;20226;-63
2022/12/18 07:14:15;;;;;;;5.65;1.73;;;;;;;;;;4958691;28;20346;-63
2022/12/18 07:16:42;;;;;;;6.07;1.58;;;;;;;;;;4951346;28;20028;-63
2022/12/18 07:19:08;;;;;;;6.88;1.80;;;;;;;;;;4957769;28;20034;-63
2022/12/18 07:21:34;;;;;;;7.60;2.17;;;;;;;;;;4950846;28;20109;-63
2022/12/18 07:24:00;;;;;;;7.68;2.03;;;;;;;;;;4968736;28;20753;-63
2022/12/18 07:26:26;;;;;;;6.55;1.70;;;;;;;;;;4968858;28;20449;-63
2022/12/18 07:28:55;;;;;;;6.30;1.63;;;;;;;;;;4957300;28;20539;-63
2022/12/18 07:31:21;;;;;;;5.47;1.40;;;;;;;;;;4953580;28;20104;-63
2022/12/18 07:33:48;;;;;;;;;;;;;;;;;;4955366;28;20188;-62
2022/12/18 07:36:14;;;;;;;6.43;1.50;;;;;;;;;;4958051;28;19925;-64
2022/12/18 07:38:40;;;;;;;;;;;;;;;;;;4953547;28;20624;-63
2022/12/18 07:41:13;;;;;;;5.95;1.58;;;;;;;;;;4957098;28;19918;-64
2022/12/18 07:43:40;;;;;;;6.30;1.70;;;;;;;;;;4952778;28;24377;-63
2022/12/18 07:46:06;;;;;;;;;;;;;;;;;;4958419;28;20056;-63
2022/12/18 07:48:32;;;;;;;4.30;1.48;;;;;;;;;;4955128;28;19914;-64
2022/12/18 07:51:02;;;;;;;6.68;1.88;;;;;;;;;;4958807;28;20034;-63
2022/12/18 07:53:28;;;;;;;8.43;2.10;;;;;;;;;;4952933;28;20034;-63
2022/12/18 07:55:58;;;;;;;7.82;2.55;;;;;;;;;;4956372;28;20159;-63
2022/12/18 07:58:24;;;;;;;6.97;1.98;;;;;;;;;;4951338;28;20030;-64
2022/12/18 08:00:50;;;;;;;6.65;1.90;;;;;;;;;;4954382;28;20050;-63
2022/12/18 08:03:17;;;;;;;6.70;2.13;;;;;;;;;;4955748;28;21469;-63
2022/12/18 08:05:43;;;;;;;7.10;1.92;;;;;;;;;;4950711;28;20381;-63
2022/12/18 08:08:09;;;;;;;7.65;1.92;;;;;;;;;;4955130;28;20421;-63
2022/12/18 08:10:35;;;;;;;7.35;1.98;;;;;;;;;;4949969;28;20555;-63
2022/12/18 08:13:01;;;;;;;6.75;1.90;;;;;;;;;;4953933;28;20033;-65
2022/12/18 08:15:27;;;;;;;6.90;1.77;;;;;;;;;;4953235;28;20039;-62
2022/12/18 08:17:56;;;;;;;8.02;1.83;;;;;;;;;;4954390;28;20342;-63
2022/12/18 08:20:22;;;;;;;6.50;1.80;;;;;;;;;;4953068;28;20332;-63
2022/12/18 08:22:49;;;;;;;5.72;1.80;;;;;;;;;;4961013;28;20049;-62
2022/12/18 08:25:15;;;;;;;6.40;1.98;;;;;;;;;;4957825;28;20034;-62
2022/12/18 08:27:41;;;;;;;6.15;2.00;;;;;;;;;;4952685;28;20377;-62
2022/12/18 08:30:07;;;;;;;7.60;2.33;;;;;;;;;;4959416;28;20050;-64
2022/12/18 08:32:34;;;;;;;8.48;2.38;;;;;;;;;;4969595;28;20073;-64
2022/12/18 08:34:59;;;;;;;;;;;;;;;;;;4973065;28;20100;-62
2022/12/18 08:37:26;;;;;;;6.82;2.13;;;;;;;;;;4957238;28;19925;-62
2022/12/18 08:39:52;;;;;;;6.80;2.15;;;;;;;;;;4959680;28;20026;-63
2022/12/18 08:45:03;;;;;;;8.55;2.90;;;;;;;;;;4956911;28;19920;-62
2022/12/18 08:47:29;;;;;;;9.57;2.97;;;;;;;;;;4952532;28;20023;-63
2022/12/18 08:49:55;;;;;;;;;;;;;;;;;;4959619;28;20392;-63
2022/12/18 08:52:21;;;;;;;11.02;3.58;;;;;;;;;;4956884;28;20253;-63
2022/12/18 08:54:47;;;;;;;8.80;3.00;;;;;;;;;;4956146;28;20084;-64
2022/12/18 08:57:13;;;;;;;;;;;;;;;;;;4973025;28;20042;-64
2022/12/18 08:59:39;;;;;;;9.90;4.07;;;;;;;;;;4969712;28;19918;-63
2022/12/18 09:02:05;;;;;;;;;;;;;;;;;;4958596;28;20131;-64
2022/12/18 09:04:31;;;;;;;11.65;4.13;;;;;;;;;;4972451;28;20059;-64
2022/12/18 09:06:57;;;;;;;;;;;;;;;;;;4959356;28;20282;-64
2022/12/18 09:09:24;;;;;;;9.05;3.95;;;;;;;;;;4954530;28;19913;-65
2022/12/18 09:11:50;;;;;;;8.05;3.58;;;;;;;;;;4953814;28;20031;-64
2022/12/18 09:14:16;;;;;;;9.93;4.00;;;;;;;;;;4966006;28;20042;-64
2022/12/18 09:16:42;;;;;;;8.38;3.17;;;;;;;;;;4946117;28;20693;-64
2022/12/18 09:19:09;;;;;;;8.95;3.45;;;;;;;;;;4953409;28;20038;-64
2022/12/18 09:21:39;;;;;;;10.77;3.28;;;;;;;;;;4962949;28;20039;-64
2022/12/18 09:24:05;;;;;;;9.50;3.42;;;;;;;;;;4951595;28;20026;-64
2022/12/18 09:26:31;;;;;;;10.10;3.60;;;;;;;;;;4950544;28;20062;-64
2022/12/18 09:28:57;;;;;;;9.15;3.33;;;;;;;;;;4956994;28;20083;-65
2022/12/18 09:31:24;;;;;;;10.02;3.50;;;;;;;;;;4954041;28;20034;-65
2022/12/18 09:33:51;;;;;;;9.07;3.50;;;;;;;;;;4953222;28;20328;-65
2022/12/18 09:36:18;;;;;;;7.45;2.72;;;;;;;;;;4957187;28;20450;-65
2022/12/18 09:38:45;;;;;;;8.00;3.15;;;;;;;;;;4955116;28;20113;-66
2022/12/18 09:41:30;;;;;;;9.32;2.95;;;;;;;;;;4954334;28;20837;-65
2022/12/18 09:44:01;;;;;;;8.95;3.47;;;;;;;;;;4957305;28;20484;-64
2022/12/18 09:46:28;;;;;;;7.90;2.55;;;;;;;;;;4968502;28;20103;-64
2022/12/18 09:48:57;;;;;;;9.05;2.72;;;;;;;;;;4975455;28;20042;-65
2022/12/18 09:51:27;;;;;;;9.68;3.55;;;;;;;;;;4954936;28;20326;-64
2022/12/18 09:53:59;;;;;;;9.15;2.97;;;;;;;;;;4956147;28;20039;-65
2022/12/18 09:56:27;;;;;;;11.13;4.65;;;;;;;;;;4955795;28;20037;-66
2022/12/18 09:58:58;;;;;;;11.05;5.22;;;;;;;;;;4955485;28;20109;-65
2022/12/18 10:01:25;;;;;;;12.23;4.90;;;;;;;;;;4969904;28;20500;-65
2022/12/18 10:03:52;;;;;;;11.05;5.38;;;;;;;;;;4958370;28;20759;-64
2022/12/18 10:06:18;;;;;;;11.68;5.65;;;;;;;;;;4956862;28;20646;-64
2022/12/18 10:08:44;;;;;;;13.52;5.40;;;;;;;;;;4953887;28;20476;-64
2022/12/18 10:11:25;;;;;;;11.32;4.82;;;;;;;;;;4956534;28;20608;-63
2022/12/18 10:14:18;;;;;;;10.88;4.03;;;;;;;;;;4955742;28;20216;-64
2022/12/18 10:16:53;;;;;;;9.80;5.18;;;;;;;;;;4944922;28;20720;-66
2022/12/18 10:19:32;;;;;;;9.70;4.50;;;;;;;;;;4956619;28;20060;-64
2022/12/18 10:22:14;;;;;;;12.20;6.35;;;;;;;;;;4952418;28;20041;-63
2022/12/18 10:24:54;;;;;;;9.48;2.40;;;;;;;;;;4950315;28;21775;-65
2022/12/18 10:27:25;;;;;;;8.38;2.90;;;;;;;;;;4951360;28;20046;-63
2022/12/18 10:29:52;;;;;;;8.68;2.60;;;;;;;;;;4953160;28;20678;-65
2022/12/18 10:32:28;;;;;;;8.52;2.70;;;;;;;;;;4972413;28;20044;-65
2022/12/18 10:34:56;;;;;;;6.90;1.92;;;;;;;;;;4954986;28;20833;-67
2022/12/18 10:37:24;;;;;;;8.07;3.15;;;;;;;;;;4950934;28;20038;-68
2022/12/18 10:40:09;;;;;;;7.65;2.33;;;;;;;;;;4956581;28;20026;-66
2022/12/18 10:42:36;;;;;;;7.47;1.98;;;;;;;;;;4951429;28;20034;-66
2022/12/18 10:45:12;;;;;;;8.10;1.85;;;;;;;;;;4958112;28;20018;-66
2022/12/18 10:47:43;;;;;;;7.32;2.30;;;;;;;;;;4950665;28;20141;-66
2022/12/18 10:50:19;;;;;;;9.43;3.40;;;;;;;;;;4953240;28;20485;-66
2022/12/18 10:52:53;;;;;;;8.02;2.40;;;;;;;;;;4965847;28;20041;-68
2022/12/18 10:55:19;;;;;;;7.50;1.88;;;;;;;;;;4954802;28;20579;-66
2022/12/18 10:57:45;;;;;;;6.55;1.98;;;;;;;;;;4954513;28;20065;-66
2022/12/18 11:00:41;;;;;;;6.10;1.70;;;;;;;;;;4955471;28;20026;-66
2022/12/18 11:03:27;;;;;;;5.85;1.60;;;;;;;;;;4884476;29;20039;-67
2022/12/18 11:06:01;;;;;;;7.10;1.42;;;;;;;;;;4898050;29;20793;-67
2022/12/18 11:08:27;;;;;;;8.85;2.25;;;;;;;;;;4886642;29;20418;-67
2022/12/18 11:10:54;;;;;;;5.28;1.40;;;;;;;;;;4892934;29;20031;-68
2022/12/18 11:13:24;;;;;;;6.40;1.70;;;;;;;;;;4894189;29;20051;-67
2022/12/18 11:15:50;;;;;;;9.48;2.30;;;;;;;;;;4891803;29;20323;-67
2022/12/18 11:18:23;;;;;;;7.90;1.83;;;;;;;;;;4899009;29;20506;-67
2022/12/18 11:20:53;;;;;;;7.53;1.60;;;;;;;;;;4895399;29;20043;-67
2022/12/18 11:23:22;;;;;;;13.50;1.92;;;;;;;;;;4896729;29;20054;-67
2022/12/18 11:25:56;;;;;;;7.03;1.80;;;;;;;;;;4892431;29;20491;-67
2022/12/18 11:28:27;;;;;;;7.35;2.45;;;;;;;;;;4894671;29;20035;-67
2022/12/18 11:31:12;;;;;;;7.65;2.40;;;;;;;;;;4896945;29;20046;-67
2022/12/18 11:33:40;;;;;;;18.00;11.40;;;;;;;;;;4878997;29;20039;-67
2022/12/18 11:36:08;;;;;;;10.88;5.38;;;;;;;;;;4880304;29;20070;-67
2022/12/18 11:38:42;;;;;;;16.98;9.55;;;;;;;;;;4883623;28;20066;-67
2022/12/18 11:44:14;;;;;;;7.80;2.22;;;;;;;;;;4954886;28;20052;-67
2022/12/18 11:46:46;;;;;;;7.22;2.05;;;;;;;;;;4954256;28;20280;-67
2022/12/18 11:49:15;;;;;;;7.53;1.77;;;;;;;;;;4956183;28;20484;-67
2022/12/18 11:52:04;;;;;;;7.28;1.85;;;;;;;;;;4953397;28;20042;-68
2022/12/18 11:54:30;;;;;;;7.18;2.00;;;;;;;;;;4939645;28;20034;-67
2022/12/18 11:56:59;;;;;;;7.30;2.20;;;;;;;;;;4956521;28;20038;-67
2022/12/18 11:59:52;;;;;;;8.10;2.30;;;;;;;;;;4953824;28;20023;-67
2022/12/18 12:02:24;;;;;;;5.63;1.40;;;;;;;;;;4960118;28;20030;-67
2022/12/18 12:04:57;;;;;;;5.50;1.50;;;;;;;;;;4957874;28;20354;-67
2022/12/18 12:07:26;;;;;;;5.20;1.50;;;;;;;;;;4951271;28;20086;-67
2022/12/18 12:09:58;;;;;;;5.45;1.55;;;;;;;;;;4955479;28;20026;-67
2022/12/18 12:12:45;;;;;;;7.55;1.88;;;;;;;;;;4951703;28;20472;-66
2022/12/18 12:15:23;;;;;;;6.25;1.83;;;;;;;;;;4956009;28;20023;-68
2022/12/18 12:17:54;;;;;;;6.30;1.73;;;;;;;;;;4957110;28;20045;-66
2022/12/18 12:20:47;;;;;;;5.93;1.80;;;;;;;;;;4958496;28;20030;-68
2022/12/18 12:23:22;;;;;;;7.40;2.00;;;;;;;;;;4953956;28;20683;-66
2022/12/18 12:25:52;;;;;;;6.72;1.95;;;;;;;;;;4957443;28;20034;-66
2022/12/18 12:28:36;;;;;;;6.45;1.85;;;;;;;;;;4956503;28;20218;-66
2022/12/18 12:31:21;;;;;;;6.97;2.20;;;;;;;;;;4961284;28;20400;-66
2022/12/18 12:33:56;;;;;;;6.30;1.80;;;;;;;;;;4954742;28;20064;-67
2022/12/18 12:36:38;;;;;;;4.93;1.63;;;;;;;;;;4954037;28;20041;-66
2022/12/18 12:39:12;;;;;;;6.70;2.03;;;;;;;;;;4958950;28;20331;-66
2022/12/18 12:44:40;;;;;;;6.43;1.70;;;;;;;;;;4953532;28;20690;-66
2022/12/18 12:47:15;;;;;;;7.38;1.80;;;;;;;;;;4956706;28;20274;-66
2022/12/18 12:49:47;;;;;;;7.25;1.90;;;;;;;;;;4951148;28;20317;-66
2022/12/18 12:52:16;;;;;;;7.78;1.70;;;;;;;;;;4957462;28;20041;-66
2022/12/18 12:54:42;;;;;;;7.45;2.22;;;;;;;;;;4956899;28;20033;-67
2022/12/18 12:57:22;;;;;;;7.15;2.13;;;;;;;;;;4956139;28;20501;-67
2022/12/18 12:59:53;;;;;;;7.13;2.10;;;;;;;;;;4958486;28;20061;-67
2022/12/18 13:02:27;;;;;;;6.13;1.77;;;;;;;;;;4958707;28;20026;-67
2022/12/18 13:04:57;;;;;;;7.65;2.15;;;;;;;;;;4954316;28;20211;-67
2022/12/18 13:07:26;;;;;;;7.50;2.08;;;;;;;;;;4955210;28;20126;-67
2022/12/18 13:10:12;;;;;;;7.32;2.13;;;;;;;;;;4964360;28;20038;-66
2022/12/18 13:12:57;;;;;;;9.63;2.88;;;;;;;;;;4968907;28;20548;-66
2022/12/18 13:15:26;;;;;;;5.93;2.13;;;;;;;;;;4956070;28;20069;-66
2022/12/18 13:18:12;;;;;;;9.52;2.80;;;;;;;;;;4958531;28;20337;-66
2022/12/18 13:20:38;;;;;;;7.43;2.10;;;;;;;;;;4954767;28;20038;-68
2022/12/18 13:23:23;;;;;;;10.55;4.20;;;;;;;;;;4960418;28;20199;-66
2022/12/18 13:26:09;;;;;;;9.60;3.20;;;;;;;;;;4960017;28;20034;-68
2022/12/18 13:28:48;;;;;;;6.10;1.83;;;;;;;;;;4955909;28;20053;-68
2022/12/18 13:31:15;;;;;;;6.40;1.73;;;;;;;;;;4956803;28;20027;-68
2022/12/18 13:33:42;;;;;;;6.50;1.60;;;;;;;;;;4955637;28;20038;-68
2022/12/18 13:36:27;;;;;;;4.97;1.35;;;;;;;;;;4960453;28;20034;-67
2022/12/18 13:39:12;;;;;;;9.85;1.77;;;;;;;;;;4954147;28;20027;-68
2022/12/18 13:41:38;;;;;;;8.73;2.08;;;;;;;;;;4960245;28;20181;-68
2022/12/18 13:44:12;;;;;;;7.03;1.95;;;;;;;;;;4955397;28;20113;-66
2022/12/18 13:46:38;;;;;;;6.53;1.73;;;;;;;;;;4956200;28;20033;-68
2022/12/18 13:49:10;;;;;;;7.05;1.88;;;;;;;;;;4958198;28;20039;-66
2022/12/18 13:51:40;;;;;;;6.93;1.65;;;;;;;;;;4956283;28;20042;-68
2022/12/18 13:54:13;;;;;;;6.22;1.75;;;;;;;;;;4956380;28;20030;-68
2022/12/18 13:56:43;;;;;;;7.32;2.00;;;;;;;;;;4956540;28;20507;-68
2022/12/18 13:59:15;;;;;;;5.60;1.63;;;;;;;;;;4959007;28;20034;-68
2022/12/18 14:01:45;;;;;;;7.57;2.20;;;;;;;;;;4973087;28;20034;-68
2022/12/18 14:04:22;;;;;;;5.53;1.77;;;;;;;;;;4959139;28;20073;-68
2022/12/18 14:06:49;;;;;;;5.93;1.60;;;;;;;;;;4959346;28;20034;-68
2022/12/18 14:09:17;;;;;;;5.68;1.70;;;;;;;;;;4963022;28;20030;-68
2022/12/18 14:11:47;;;;;;;7.22;1.92;;;;;;;;;;4955865;28;20148;-68
2022/12/18 14:14:15;;;;;;;7.05;2.38;;;;;;;;;;4960119;28;20042;-68
2022/12/18 14:16:41;;;;;;;9.02;3.40;;;;;;;;;;4956273;28;20144;-68
2022/12/18 14:19:14;;;;;;;8.30;2.55;;;;;;;;;;4956708;28;20444;-68
2022/12/18 14:21:40;;;;;;;11.38;3.75;;;;;;;;;;4956068;28;21123;-68
2022/12/18 14:24:17;;;;;;;8.18;2.50;;;;;;;;;;4960145;28;20195;-66
2022/12/18 14:26:44;;;;;;;6.68;1.92;;;;;;;;;;4956264;28;20034;-67
2022/12/18 14:29:19;;;;;;;5.80;1.67;;;;;;;;;;4957149;28;20038;-68
2022/12/18 14:31:45;;;;;;;7.23;2.43;;;;;;;;;;4955178;28;20037;-67
2022/12/18 14:34:19;;;;;;;7.75;2.70;;;;;;;;;;4941082;28;20503;-67
2022/12/18 14:36:55;;;;;;;8.77;2.95;;;;;;;;;;4953996;28;20035;-67
2022/12/18 14:39:23;;;;;;;11.43;5.80;;;;;;;;;;4969201;28;20053;-67
2022/12/18 14:41:50;;;;;;;11.93;5.75;;;;;;;;;;4956865;28;20641;-66
2022/12/18 14:44:16;;;;;;;15.68;10.57;;;;;;;;;;4957817;28;20460;-66
2022/12/18 14:46:44;;;;;;;14.18;7.90;;;;;;;;;;4954335;28;20060;-66
2022/12/18 14:49:16;;;;;;;13.82;7.82;;;;;;;;;;4955041;28;20080;-67
2022/12/18 14:51:47;;;;;;;18.30;10.90;;;;;;;;;;4956050;28;20025;-67
2022/12/18 14:54:17;;;;;;;31.65;21.08;;;;;;;;;;4959004;28;20038;-67
2022/12/18 14:56:45;;;;;;;111.03;95.65;;;;;;;;;;4955908;28;20081;-67
2022/12/18 14:59:16;;;;;;;45.97;37.63;;;;;;;;;;4959691;28;20563;-66
2022/12/18 15:01:56;;;;;;;27.83;19.42;;;;;;;;;;4955603;28;20029;-66
2022/12/18 15:04:26;;;;;;;19.23;12.40;;;;;;;;;;4953516;28;20265;-67
2022/12/18 15:07:12;;;;;;;14.10;7.45;;;;;;;;;;4960667;28;20059;-67
2022/12/18 15:09:39;;;;;;;14.15;7.30;;;;;;;;;;4955545;28;20522;-67